Главная страница
METAR-TAF:

METAR-TAF

Аэропорты :

Florø, Норвегия

широта: 61-35N, долгота: 005-02E, высота над уровнем моря: 0 м

Текущие метеонаблюдения

Эта сводка был подготовлена 37 минут назад, в 02:20 UTC
Ветер 8 Узел от восточный
Температура 4°C
Влажность 87%
Давление 994 hPa
Видимость 10 км и более

METAR: ENFL 130220Z AUTO 10008KT 9999NDV FEW023/// SCT037/// OVC062/// 04/02 Q0994

Время: 03:57 (02:57 UTC)

Прогноз

Эта сводка был подготовлена 7 часа и 45 минут назад, в 19:12 UTC
Прогноз действительный с 12-го 19 UTC до 12-го 24 UTC
Ветер 8 Узел от восточный
Видимость 10 км и более
небольшая облачность на высоте 1200 фута
Рассеянная облачность на высоте 3000 фута
небольшой дождь
Вероятность 30%
С 12-го 21 UTC до 12-го 24 UTC
Рассеянная облачность на высоте 1200 фута

TAF: ENFL 121912Z 1219/1224 08008KT 9999 -RA FEW012 BKN030 PROB30 1221/1224 BKN012

Метеонаблюдения и прогнозы для более 4000 аэропортов (сводки METAR и TAF).

Имеющиеся станции представлены на карте желтыми и красными точками.

Чтобы увидеть название станции, наведите на нее мышь.

Затем щелкните, чтобы увидеть метеонаблюдения и метеопрогнозы.

Управление картой: чтобы увеличить масштаб, щелкните зеленые кнопки с черным крестиком; чтобы уменьшить масштаб, щелкните зеленую кнопку с тире; для просмотра соседних карт щелкайте зеленые стрелки.


METAR-TAF: